Stations météo

Publicité
Dunstaffnage, Grande-Bretagne (99006): Température de l'air & dewpoint: 15.01.2018 14:00:00 - 21.01.2018 14:00:00 (GMT)Dunstaffnage, Grande-Bretagne (99006): Température de l'air -20cm: 15.01.2018 14:00:00 - 21.01.2018 14:00:00 (GMT)Dunstaffnage, Grande-Bretagne (99006): Vitesse du vent & gusts: 15.01.2018 14:00:00 - 21.01.2018 14:00:00 (GMT)Dunstaffnage, Grande-Bretagne (99006): Direction du vent: 15.01.2018 14:00:00 - 21.01.2018 14:00:00 (GMT)Dunstaffnage, Grande-Bretagne (99006): Quantités de précipitations: 15.01.2018 14:00:00 - 21.01.2018 14:00:00 (GMT)
Date & Time tt [°C] td [°C] tt -20cm [°C] ff [km/h] ff [knt] fx [km/h] fx [knt] dd rr [mm]
21.01.2018 14:00:00 2,3 0,6 - 29 16 - - ESE 0,0
21.01.2018 13:00:00 1,6 0,3 - 29 16 - - ESE 1,0
21.01.2018 12:00:00 1,2 0,1 - 21 11 46 25 ESE 0,0
21.01.2018 11:00:00 2,0 -1,2 - 21 11 - - ESE 0,0
21.01.2018 10:00:00 1,8 -1,3 - 21 11 - - ESE 0,0
21.01.2018 09:00:00 1,9 -3,0 2,2 18 10 - - ESE 0,0
21.01.2018 08:00:00 2,1 -2,9 - 22 12 - - ESE 0,0
21.01.2018 07:00:00 1,9 -3,5 - 11 6 - - SE 0,0
21.01.2018 06:00:00 0,2 -1,9 - 15 8 - - E 0,0
21.01.2018 05:00:00 -0,4 -2,7 - 15 8 - - E 0,0
21.01.2018 04:00:00 -0,5 -2,6 - 16 9 - - E 0,0
21.01.2018 03:00:00 -0,9 -2,3 - 15 8 - - E 0,0
21.01.2018 02:00:00 -1,3 -2,5 - 16 9 - - E 0,0
21.01.2018 01:00:00 -1,6 -2,6 - 13 7 - - E 0,0
21.01.2018 00:00:00 -2,1 -2,8 - 11 6 - - E 0,0
20.01.2018 23:00:00 -1,9 -2,5 - 13 7 - - E 0,0
20.01.2018 22:00:00 -1,6 -2,2 - 9 5 - - ESE 0,0
20.01.2018 21:00:00 -1,5 -2,0 - 13 7 - - E 0,0
20.01.2018 20:00:00 -1,1 -1,4 - 11 6 - - E 0,0
20.01.2018 19:00:00 -0,6 -0,8 - 9 5 - - E 0,0
20.01.2018 18:00:00 -0,8 -1,2 - 2 1 - - SSE 0,0
20.01.2018 17:00:00 -0,5 -1,3 - 2 1 - - S 0,0
20.01.2018 16:00:00 2,0 0,6 - 4 2 - - NE 0,0
20.01.2018 15:00:00 2,4 0,4 - 4 2 - - NNW 0,0
20.01.2018 14:00:00 3,6 0,2 - 2 1 - - ESE 0,2
20.01.2018 13:00:00 2,8 0,9 - 5 3 - - ESE 0,0
20.01.2018 12:00:00 1,5 -0,2 - 8 4 - - E 0,0
20.01.2018 11:00:00 0,8 -0,1 - 9 5 - - ESE 0,0
20.01.2018 10:00:00 0,9 0,0 - 8 4 - - ESE 0,0
20.01.2018 09:00:00 0,6 0,1 2,9 11 6 - - E 0,0
20.01.2018 08:00:00 0,5 -0,1 - 4 2 - - SE 0,0
20.01.2018 07:00:00 0,0 -0,4 - 4 2 - - SSW 0,0
20.01.2018 06:00:00 0,6 0,3 - 2 1 - - S 0,0
20.01.2018 05:00:00 0,5 -0,1 - 5 3 - - SSW 0,2
20.01.2018 04:00:00 2,1 1,0 - 11 6 - - W 0,0
20.01.2018 03:00:00 1,6 0,3 - 4 2 - - S 0,0
20.01.2018 02:00:00 1,9 0,6 - 16 9 - - W 0,4
20.01.2018 01:00:00 2,5 0,7 - 13 7 - - W 0,0
20.01.2018 00:00:00 2,7 1,1 - 22 12 - - W 0,2
19.01.2018 23:00:00 2,2 1,3 - 5 3 - - SW 0,2
19.01.2018 22:00:00 1,9 1,2 - 4 2 - - S 1,4
19.01.2018 21:00:00 1,7 0,9 - 16 9 - - ESE 0,6
19.01.2018 20:00:00 1,8 1,1 - 15 8 - - SSE 0,0
19.01.2018 19:00:00 1,2 0,6 - 21 11 46 25 WSW 1,0
19.01.2018 18:00:00 1,7 0,8 - 4 2 - - SW 0,0
19.01.2018 17:00:00 1,1 0,4 - 8 4 - - SSW 0,0
19.01.2018 16:00:00 0,8 0,3 - 5 3 - - S 0,4
19.01.2018 15:00:00 1,6 0,7 - 34 18 55 30 WNW 0,6
19.01.2018 14:00:00 2,8 1,5 - 5 3 - - SE 0,0
19.01.2018 13:00:00 4,6 1,2 - 22 12 - - WSW 0,0
19.01.2018 12:00:00 2,7 1,4 - 8 4 - - SW 0,2
19.01.2018 11:00:00 2,4 0,7 - 9 5 - - SW 0,0
19.01.2018 10:00:00 1,2 0,4 - 5 3 - - SSW 0,8
19.01.2018 09:00:00 1,9 1,1 3,0 13 7 - - SSE 0,0
19.01.2018 08:00:00 1,6 1,0 - 5 3 - - SSW 0,8
19.01.2018 07:00:00 2,4 1,2 - 9 5 - - WNW 0,2
19.01.2018 06:00:00 2,2 0,5 - 9 5 - - SSW 0,4
19.01.2018 05:00:00 2,4 0,0 - 4 2 - - SSW 0,0
19.01.2018 04:00:00 2,8 0,1 - 15 8 - - WSW 0,6
19.01.2018 03:00:00 3,5 0,4 - 22 12 - - WSW 0,2
19.01.2018 02:00:00 2,7 0,0 - 15 8 - - WSW 0,0
19.01.2018 01:00:00 3,1 0,4 - 15 8 - - SW 0,2
19.01.2018 00:00:00 2,8 0,6 - 11 6 - - SW 0,0
18.01.2018 23:00:00 1,9 0,7 - 8 4 - - SSW 0,0
18.01.2018 22:00:00 1,6 1,1 - 5 3 - - ESE 0,6
18.01.2018 21:00:00 1,4 0,7 - 4 2 - - W 0,4
18.01.2018 20:00:00 1,9 1,0 - 9 5 - - SW 0,4
18.01.2018 19:00:00 1,7 0,9 - 9 5 - - SW 0,6
18.01.2018 18:00:00 0,4 0,0 - 4 2 - - S 0,0
18.01.2018 17:00:00 1,3 0,5 - 2 1 - - WNW 0,0
18.01.2018 16:00:00 2,4 1,1 - 5 3 - - SW 0,0
18.01.2018 15:00:00 2,7 1,7 - 16 9 - - WNW 0,8
18.01.2018 14:00:00 3,9 2,3 - 8 4 - - WSW 0,0
18.01.2018 13:00:00 4,1 3,1 - 9 5 - - WSW 0,0
18.01.2018 12:00:00 2,4 1,9 - 5 3 - - NNE 0,0
18.01.2018 11:00:00 1,9 1,2 - 5 3 - - ESE 1,0
18.01.2018 10:00:00 3,0 1,7 - 15 8 - - WSW 0,6
18.01.2018 09:00:00 3,0 1,3 3,4 8 4 - - SW 0,0
18.01.2018 08:00:00 3,9 1,8 - 13 7 - - W 0,0
18.01.2018 07:00:00 2,7 1,8 - 4 2 - - ENE 0,0
18.01.2018 06:00:00 2,4 1,7 - 4 2 - - S 0,2
18.01.2018 05:00:00 2,2 1,2 - 5 3 - - SSW 0,2
18.01.2018 04:00:00 3,4 2,1 - 15 8 - - W 0,2
18.01.2018 03:00:00 3,4 2,3 - 15 8 - - W 0,2
18.01.2018 02:00:00 1,6 1,0 - 4 2 - - WSW 0,0
18.01.2018 01:00:00 1,9 1,0 - 4 2 - - ESE 0,0
18.01.2018 00:00:00 1,9 1,0 - 8 4 - - S 0,0
17.01.2018 23:00:00 1,9 1,1 - 13 7 - - SE 0,0
17.01.2018 22:00:00 2,7 1,5 - 15 8 - - SSE 0,6
17.01.2018 21:00:00 3,6 1,8 - 2 1 - - ENE 0,0
17.01.2018 20:00:00 4,3 1,8 - 9 5 - - SW 0,0
17.01.2018 19:00:00 3,8 1,4 - 9 5 - - SW 0,0
17.01.2018 18:00:00 3,4 1,0 - 13 7 - - SW 0,0
17.01.2018 17:00:00 3,7 1,7 - 22 12 57 31 WSW 0,0
17.01.2018 16:00:00 4,8 0,3 - 24 13 - - WSW 0,0
17.01.2018 15:00:00 3,6 1,0 - 24 13 55 30 W 0,2
17.01.2018 14:00:00 3,7 2,6 - 28 15 55 30 W 0,4
17.01.2018 13:00:00 4,4 0,5 - 41 22 57 31 W 0,0
17.01.2018 12:00:00 5,4 1,9 - 34 18 52 28 W 0,0
17.01.2018 11:00:00 4,5 2,0 - 22 12 54 29 W 0,2
17.01.2018 10:00:00 3,5 1,1 - 46 25 72 39 W 0,2
17.01.2018 09:00:00 5,0 1,0 3,4 39 21 63 34 W 0,0
17.01.2018 08:00:00 4,6 0,6 - 34 18 61 33 W 0,0
17.01.2018 07:00:00 3,6 1,4 - 28 15 74 40 W 0,0
17.01.2018 06:00:00 3,5 -0,6 - 31 17 72 39 WNW 1,0
17.01.2018 05:00:00 4,1 -1,0 - 37 20 68 37 WNW 0,0
17.01.2018 04:00:00 3,3 0,3 - 29 16 67 36 WNW 1,8
17.01.2018 03:00:00 2,9 1,0 - 50 27 72 39 W 0,6
17.01.2018 02:00:00 2,9 1,1 - 34 18 52 28 W 0,8
17.01.2018 01:00:00 2,8 0,1 - 22 12 - - W 0,4
17.01.2018 00:00:00 2,1 -0,8 - 22 12 - - W 0,0
16.01.2018 23:00:00 1,2 0,1 - 26 14 52 28 W 0,4
16.01.2018 22:00:00 1,9 -0,7 - 24 13 48 26 W 0,0
16.01.2018 21:00:00 1,0 -1,4 - 11 6 - - SSW 0,0
16.01.2018 20:00:00 1,1 -1,6 - 28 15 50 27 W 0,0
16.01.2018 19:00:00 1,0 -0,9 - 21 11 48 26 W 0,2
16.01.2018 18:00:00 1,8 -0,7 - 21 11 57 31 W 0,2
16.01.2018 17:00:00 1,6 -0,7 - 9 5 48 26 SSW 0,2
16.01.2018 16:00:00 2,5 -0,9 - 24 13 - - WSW 0,4
16.01.2018 15:00:00 0,7 0,3 - 22 12 54 29 W 0,2
16.01.2018 14:00:00 1,2 -0,2 - 9 5 67 36 WSW 0,0
16.01.2018 13:00:00 2,5 -0,3 - 26 14 61 33 W 0,0
16.01.2018 12:00:00 1,9 -0,2 - 22 12 76 41 W 0,2
16.01.2018 11:00:00 1,9 0,7 - 28 15 81 44 W 0,4
16.01.2018 10:00:00 2,1 -0,6 - 29 16 81 44 W 0,2
16.01.2018 09:00:00 3,8 0,6 4,0 28 15 50 27 W 0,0
16.01.2018 08:00:00 2,2 1,4 - 41 22 67 36 W 0,4
16.01.2018 07:00:00 1,7 0,9 - 18 10 - - WSW 0,6
16.01.2018 06:00:00 1,8 1,1 - 18 10 48 26 WSW 0,8
16.01.2018 05:00:00 1,7 0,6 - 28 15 68 37 W 1,0
16.01.2018 04:00:00 2,4 0,3 - 21 11 - - WSW 0,0
16.01.2018 03:00:00 2,6 0,9 - 26 14 48 26 WSW 0,2
16.01.2018 02:00:00 2,5 0,7 - 22 12 - - WSW 0,2
16.01.2018 01:00:00 2,4 0,0 - 15 8 55 30 WSW 0,0
16.01.2018 00:00:00 2,6 1,0 - 8 4 - - WSW 0,2
15.01.2018 23:00:00 1,6 0,5 - 5 3 - - SW 0,0
15.01.2018 22:00:00 1,9 0,9 - 16 9 63 34 WSW 1,4
15.01.2018 21:00:00 2,7 0,9 - 21 11 - - WNW 0,2
15.01.2018 20:00:00 3,9 0,8 - 24 13 - - W 0,0
15.01.2018 19:00:00 2,7 1,4 - 11 6 - - SW 0,2
15.01.2018 18:00:00 2,5 1,8 - 24 13 54 29 W 1,0
15.01.2018 17:00:00 3,2 2,1 - 9 5 - - WSW 0,4
15.01.2018 16:00:00 3,9 2,0 - 22 12 63 34 WNW 0,2
15.01.2018 15:00:00 4,3 2,6 - 16 9 59 32 WSW 0,2
15.01.2018 14:00:00 4,9 2,8 - 18 10 - - W 0,2

tt = Température de l'air
td = dewpoint
tt -20cm = Température de l'air -20cm
ff = Vitesse du vent
fx = gusts
dd = Direction du vent
rr = Quantités de précipitations

stations d'obs. à proximité